createdAt,value
2022-11-05T00:01:24.392Z,6.85
2022-11-05T00:04:26.814Z,6.90
2022-11-05T00:07:44.378Z,7.25
2022-11-05T00:10:30.303Z,7.85
2022-11-05T00:13:29.319Z,6.97
2022-11-05T00:16:45.325Z,7.63
2022-11-05T00:19:32.299Z,8.20
2022-11-05T00:22:31.293Z,7.85
2022-11-05T00:25:23.291Z,7.97
2022-11-05T00:28:06.308Z,7.70
2022-11-05T00:31:00.309Z,8.73
2022-11-05T00:33:49.301Z,9.05
2022-11-05T00:36:23.381Z,9.65
2022-11-05T00:39:12.294Z,9.65
2022-11-05T00:42:06.348Z,9.00
2022-11-05T00:45:07.304Z,8.25
2022-11-05T00:48:06.313Z,8.43
2022-11-05T00:50:54.291Z,8.65
2022-11-05T00:53:28.403Z,8.10
2022-11-05T00:56:16.320Z,8.75
2022-11-05T00:58:50.377Z,9.40
2022-11-05T01:01:37.449Z,10.48
2022-11-05T01:04:19.301Z,8.40
2022-11-05T01:07:13.315Z,8.63
2022-11-05T01:10:00.310Z,9.82
2022-11-05T01:12:34.358Z,8.55
2022-11-05T01:15:22.337Z,8.70
2022-11-05T01:17:57.394Z,8.68
2022-11-05T01:20:44.333Z,8.20
2022-11-05T01:23:18.766Z,7.95
2022-11-05T01:26:06.304Z,8.82
2022-11-05T01:28:40.483Z,8.85
2022-11-05T01:31:28.308Z,8.95
2022-11-05T01:34:09.309Z,9.35
2022-11-05T01:36:56.299Z,8.18
2022-11-05T01:39:30.404Z,8.38
2022-11-05T01:42:26.319Z,8.27
2022-11-05T01:45:09.322Z,8.98
2022-11-05T01:48:07.318Z,8.60
2022-11-05T01:51:16.323Z,9.38
2022-11-05T01:54:09.406Z,9.35
2022-11-05T01:56:52.311Z,8.85
2022-11-05T01:59:36.447Z,9.38
2022-11-05T02:02:17.393Z,8.75
2022-11-05T02:05:07.299Z,8.75
2022-11-05T02:07:48.304Z,8.90
2022-11-05T02:10:30.395Z,9.30
2022-11-05T02:13:11.631Z,8.98
2022-11-05T02:16:22.353Z,10.88
2022-11-05T02:19:02.461Z,9.60
2022-11-05T02:22:11.314Z,9.27
2022-11-05T02:25:04.305Z,9.40
2022-11-05T02:27:52.344Z,8.98
2022-11-05T02:30:37.465Z,8.57
2022-11-05T02:34:03.321Z,9.48
2022-11-05T02:36:54.322Z,8.63
2022-11-05T02:39:45.416Z,8.75
2022-11-05T02:42:25.320Z,9.68
2022-11-05T02:45:06.435Z,10.32
2022-11-05T02:47:51.324Z,10.70
2022-11-05T02:50:44.411Z,11.68
2022-11-05T02:53:37.330Z,11.63
2022-11-05T02:56:57.311Z,11.38
2022-11-05T02:59:38.332Z,12.45
2022-11-05T03:02:26.496Z,13.50
2022-11-05T03:05:00.941Z,13.15
2022-11-05T03:07:51.355Z,12.65
2022-11-05T03:10:25.396Z,12.75
2022-11-05T03:13:13.561Z,15.30
2022-11-05T03:16:13.449Z,13.63
2022-11-05T03:19:07.332Z,13.85
2022-11-05T03:21:45.728Z,14.07
2022-11-05T03:24:37.343Z,12.90
2022-11-05T03:27:13.622Z,13.98
2022-11-05T03:30:03.322Z,12.98
2022-11-05T03:32:59.346Z,12.18
2022-11-05T03:35:49.344Z,12.45
2022-11-05T03:38:34.347Z,12.25
2022-11-05T03:41:30.334Z,13.77
2022-11-05T03:44:20.343Z,10.88
2022-11-05T03:49:55.384Z,10.60
2022-11-05T03:52:34.424Z,10.50
2022-11-05T03:55:22.332Z,10.95
2022-11-05T03:58:00.486Z,10.57
2022-11-05T04:00:48.318Z,10.93
2022-11-05T04:03:22.415Z,9.82
2022-11-05T04:06:29.363Z,10.50
2022-11-05T04:09:28.344Z,10.60
2022-11-05T04:12:37.358Z,10.15
2022-11-05T04:15:11.411Z,11.32
2022-11-05T04:17:58.390Z,10.55
2022-11-05T04:20:52.313Z,10.98
2022-11-05T04:23:58.372Z,12.10
2022-11-05T04:26:32.398Z,10.73
2022-11-05T04:29:38.365Z,11.00
2022-11-05T04:32:19.361Z,12.07
2022-11-05T04:35:13.315Z,12.52
2022-11-05T04:38:01.357Z,13.52
2022-11-05T04:40:35.408Z,12.88
2022-11-05T04:43:24.343Z,12.15
2022-11-05T04:46:05.342Z,14.05
2022-11-05T04:48:59.358Z,13.38
2022-11-05T04:51:46.367Z,11.38
2022-11-05T04:54:27.343Z,12.27
2022-11-05T04:57:22.339Z,12.88
2022-11-05T05:00:10.370Z,12.80
2022-11-05T05:02:44.438Z,13.68
2022-11-05T05:05:32.348Z,14.18
2022-11-05T05:08:10.442Z,14.55
2022-11-05T05:10:58.365Z,14.93
2022-11-05T05:13:32.562Z,13.40
2022-11-05T05:16:24.358Z,12.52
2022-11-05T05:18:58.417Z,12.88
2022-11-05T05:21:45.391Z,12.90
2022-11-05T05:24:25.049Z,12.70
2022-11-05T05:27:11.367Z,13.70
2022-11-05T05:29:52.351Z,14.00
2022-11-05T05:32:40.368Z,13.20
2022-11-05T05:35:14.427Z,13.55
2022-11-05T05:38:04.369Z,12.68
2022-11-05T05:40:45.356Z,13.27
2022-11-05T05:43:46.353Z,12.43
2022-11-05T05:46:40.354Z,13.20
2022-11-05T05:49:27.383Z,12.88
2022-11-05T05:52:08.379Z,14.55
2022-11-05T05:54:55.369Z,14.60
2022-11-05T05:57:36.479Z,15.20
2022-11-05T06:00:17.368Z,15.63
2022-11-05T06:02:58.532Z,16.95
2022-11-05T06:05:39.371Z,15.80
2022-11-05T06:08:20.446Z,15.98
2022-11-05T06:11:01.459Z,14.43
2022-11-05T06:13:42.499Z,15.05
2022-11-05T06:16:23.373Z,14.18
2022-11-05T06:19:04.439Z,14.52
2022-11-05T06:21:45.382Z,15.02
2022-11-05T06:24:33.366Z,15.45
2022-11-05T06:27:13.383Z,14.63
2022-11-05T06:29:54.554Z,13.90
2022-11-05T06:32:35.385Z,15.32
2022-11-05T06:35:16.482Z,15.45
2022-11-05T06:37:56.358Z,14.95
2022-11-05T06:40:37.452Z,15.45
2022-11-05T06:43:19.387Z,17.05
2022-11-05T06:46:07.438Z,19.27
2022-11-05T06:48:41.466Z,19.63
2022-11-05T06:51:29.382Z,18.35
2022-11-05T06:54:03.339Z,17.27
2022-11-05T06:56:51.376Z,17.85
2022-11-05T06:59:25.359Z,18.80
2022-11-05T07:02:13.452Z,17.13
2022-11-05T07:04:54.355Z,19.15
2022-11-05T07:07:42.381Z,18.40
2022-11-05T07:10:24.367Z,21.40
2022-11-05T07:13:12.628Z,19.38
2022-11-05T07:15:47.362Z,21.00
2022-11-05T07:18:41.385Z,21.33
2022-11-05T07:21:36.359Z,20.15
2022-11-05T07:24:24.382Z,22.20
2022-11-05T07:27:05.397Z,22.77
2022-11-05T07:29:59.357Z,23.08
2022-11-05T07:32:47.406Z,20.05
2022-11-05T07:35:21.480Z,18.30
2022-11-05T07:38:09.372Z,20.70
2022-11-05T07:40:50.477Z,20.48
2022-11-05T07:43:30.396Z,20.30
2022-11-05T07:46:13.901Z,19.40
2022-11-05T07:48:55.379Z,18.55
2022-11-05T07:51:36.483Z,18.65
2022-11-05T07:54:16.380Z,17.20
2022-11-05T07:56:57.503Z,15.73
2022-11-05T07:59:37.391Z,15.93
2022-11-05T08:02:18.769Z,14.95
2022-11-05T08:05:00.381Z,14.52
2022-11-05T08:07:41.441Z,14.82
2022-11-05T08:10:21.387Z,14.90
2022-11-05T08:13:02.477Z,14.75
2022-11-05T08:15:43.398Z,15.23
2022-11-05T08:18:37.396Z,15.80
2022-11-05T08:21:19.381Z,15.35
2022-11-05T08:24:00.469Z,16.48
2022-11-05T08:26:41.399Z,15.27
2022-11-05T08:29:29.400Z,15.77
2022-11-05T08:32:03.365Z,16.20
2022-11-05T08:34:51.393Z,15.20
2022-11-05T08:37:25.431Z,16.38
2022-11-05T08:40:13.381Z,15.98
2022-11-05T08:42:48.522Z,15.18
2022-11-05T08:45:38.073Z,14.85
2022-11-05T08:48:15.357Z,13.95
2022-11-05T08:51:03.393Z,14.10
2022-11-05T08:53:37.384Z,14.00
2022-11-05T08:56:25.386Z,13.25
2022-11-05T08:59:13.400Z,14.38
2022-11-05T09:01:54.529Z,14.77
2022-11-05T09:04:48.393Z,14.18
2022-11-05T09:07:36.398Z,13.98
2022-11-05T09:10:24.409Z,11.52
2022-11-05T09:12:58.315Z,14.18
2022-11-05T09:15:47.406Z,12.90
2022-11-05T09:18:28.392Z,12.98
2022-11-05T09:21:09.457Z,13.00
2022-11-05T09:23:50.392Z,13.98
2022-11-05T09:26:38.394Z,14.48
2022-11-05T09:29:18.400Z,15.75
2022-11-05T09:32:06.409Z,14.43
2022-11-05T09:34:47.386Z,15.82
2022-11-05T09:37:28.565Z,14.73
2022-11-05T09:40:09.402Z,14.10
2022-11-05T09:42:59.417Z,13.13
2022-11-05T09:45:43.405Z,13.43
2022-11-05T09:48:35.483Z,14.05
2022-11-05T09:51:10.694Z,14.55
2022-11-05T09:54:00.396Z,14.25
2022-11-05T09:56:37.206Z,14.27
2022-11-05T09:59:27.423Z,13.35
2022-11-05T10:02:35.513Z,13.13
2022-11-05T10:05:25.454Z,10.60
2022-11-05T10:08:09.400Z,10.63
2022-11-05T10:11:05.408Z,7.97
2022-11-05T10:13:47.929Z,8.82
2022-11-05T10:16:38.428Z,9.30
2022-11-05T10:19:23.446Z,7.35
2022-11-05T10:22:09.479Z,6.90
2022-11-05T10:24:55.426Z,3.85
2022-11-05T10:27:43.493Z,4.97
2022-11-05T10:30:24.407Z,4.90
2022-11-05T10:33:10.758Z,4.15
2022-11-05T10:35:57.609Z,3.50
2022-11-05T10:38:38.486Z,4.85
2022-11-05T10:41:31.432Z,4.85
2022-11-05T10:44:39.466Z,4.10
2022-11-05T10:47:19.434Z,3.42
2022-11-05T10:50:06.530Z,4.35
2022-11-05T10:52:50.391Z,3.92
2022-11-05T10:55:40.529Z,5.07
2022-11-05T10:58:20.393Z,4.77
2022-11-05T11:01:01.518Z,3.45
2022-11-05T11:03:44.421Z,4.18
2022-11-05T11:06:34.622Z,2.50
2022-11-05T11:09:24.405Z,3.42
2022-11-05T11:12:41.196Z,2.63
2022-11-05T11:15:23.426Z,2.65
2022-11-05T11:18:04.481Z,4.88
2022-11-05T11:20:50.461Z,2.70
2022-11-05T11:23:31.493Z,14.30
2022-11-05T11:26:12.423Z,14.38
2022-11-05T11:29:01.426Z,3.83
2022-11-05T11:31:45.416Z,3.60
2022-11-05T11:34:42.425Z,2.92
2022-11-05T11:37:24.800Z,2.80
2022-11-05T11:40:19.417Z,4.38
2022-11-05T11:43:02.419Z,1.52
2022-11-05T11:45:52.425Z,1.90
2022-11-05T11:48:36.431Z,3.37
2022-11-05T11:51:30.431Z,2.20
2022-11-05T11:54:11.429Z,2.63
2022-11-05T11:57:01.427Z,1.98
2022-11-05T12:00:06.580Z,1.75
2022-11-05T12:03:14.960Z,1.90
2022-11-05T12:06:18.428Z,1.77
2022-11-05T12:09:18.440Z,2.03
2022-11-05T12:12:05.524Z,2.20
2022-11-05T12:14:52.415Z,3.03
2022-11-05T12:17:41.514Z,2.50
2022-11-05T12:20:32.431Z,2.55
2022-11-05T12:23:06.580Z,2.30
2022-11-05T12:26:02.438Z,2.30
2022-11-05T12:29:12.121Z,2.00
2022-11-05T12:32:03.423Z,2.10
2022-11-05T12:34:51.431Z,2.70
2022-11-05T12:37:51.437Z,2.90
2022-11-05T12:40:54.425Z,2.55
2022-11-05T12:43:40.432Z,2.90
2022-11-05T12:46:28.435Z,3.00
2022-11-05T12:49:23.110Z,2.90
2022-11-05T12:52:16.448Z,3.25
2022-11-05T12:55:03.588Z,2.83
2022-11-05T12:57:55.448Z,2.78
2022-11-05T13:00:37.424Z,3.97
2022-11-05T13:03:37.452Z,4.35
2022-11-05T13:06:30.431Z,4.78
2022-11-05T13:09:11.433Z,5.45
2022-11-05T13:12:17.423Z,5.28
2022-11-05T13:15:08.431Z,4.35
2022-11-05T13:17:50.614Z,4.18
2022-11-05T13:20:42.447Z,3.28
2022-11-05T13:23:32.445Z,2.80
2022-11-05T13:26:43.471Z,2.60
2022-11-05T13:32:43.481Z,7.22
2022-11-05T13:35:34.432Z,5.00
2022-11-05T13:38:33.379Z,4.95
2022-11-05T13:41:14.443Z,9.32
2022-11-05T13:44:01.461Z,14.05
2022-11-05T13:46:47.987Z,26.48
2022-11-05T13:49:35.464Z,18.75
2022-11-05T13:52:21.444Z,13.57
2022-11-05T13:55:22.531Z,13.23
2022-11-05T13:58:10.465Z,16.58
2022-11-05T14:01:10.542Z,11.15
2022-11-05T14:03:56.465Z,8.00
2022-11-05T14:06:45.463Z,16.17
2022-11-05T14:09:31.466Z,10.00
2022-11-05T14:12:13.448Z,4.22
2022-11-05T14:14:59.457Z,3.35
2022-11-05T14:17:54.673Z,3.45
2022-11-05T14:20:45.433Z,3.20
2022-11-05T14:23:39.443Z,4.80
2022-11-05T14:26:42.419Z,4.15
2022-11-05T14:29:31.471Z,5.90
2022-11-05T14:32:17.449Z,4.82
2022-11-05T14:35:17.455Z,3.88
2022-11-05T14:38:06.477Z,4.18
2022-11-05T14:40:58.474Z,2.10
2022-11-05T14:43:58.424Z,2.90
2022-11-05T14:46:50.460Z,3.28
2022-11-05T14:49:36.477Z,2.70
2022-11-05T14:52:32.445Z,3.08
2022-11-05T14:55:32.476Z,3.10
2022-11-05T14:58:05.529Z,2.67
2022-11-05T15:00:54.487Z,3.40
2022-11-05T15:03:34.644Z,4.65
2022-11-05T15:06:27.466Z,3.95
2022-11-05T15:09:02.542Z,4.75
2022-11-05T15:11:53.456Z,6.68
2022-11-05T15:14:34.589Z,5.13
2022-11-05T15:17:27.446Z,4.07
2022-11-05T15:20:08.485Z,4.80
2022-11-05T15:23:08.538Z,4.05
2022-11-05T15:26:09.448Z,3.80
2022-11-05T15:28:46.542Z,4.20
2022-11-05T15:31:33.465Z,4.05
2022-11-05T15:34:43.482Z,4.03
2022-11-05T15:37:40.449Z,4.20
2022-11-05T15:40:38.512Z,5.32
2022-11-05T15:43:17.668Z,4.20
2022-11-05T15:46:15.478Z,4.68
2022-11-05T15:48:54.370Z,6.07
2022-11-05T15:51:42.455Z,5.68
2022-11-05T15:54:30.521Z,8.07
2022-11-05T15:57:33.456Z,5.25
2022-11-05T16:00:09.568Z,5.03
2022-11-05T16:03:12.757Z,4.10
2022-11-05T16:05:53.431Z,3.72
2022-11-05T16:08:41.464Z,3.95
2022-11-05T16:11:15.637Z,4.00
2022-11-05T16:14:20.481Z,3.80
2022-11-05T16:17:01.501Z,4.30
2022-11-05T16:19:49.448Z,4.30
2022-11-05T16:22:30.466Z,5.55
2022-11-05T16:25:34.485Z,5.82
2022-11-05T16:28:31.489Z,6.38
2022-11-05T16:31:18.455Z,6.45
2022-11-05T16:34:13.461Z,7.05
2022-11-05T16:37:05.462Z,6.90
2022-11-05T16:39:39.569Z,5.45
2022-11-05T16:42:43.461Z,6.32
2022-11-05T16:45:19.748Z,5.85
2022-11-05T16:48:06.474Z,6.57
2022-11-05T16:50:40.714Z,7.50
2022-11-05T16:53:28.484Z,7.30
2022-11-05T16:56:02.559Z,7.55
2022-11-05T16:58:51.487Z,7.93
2022-11-05T17:01:28.011Z,8.40
2022-11-05T17:04:16.495Z,8.55
2022-11-05T17:06:51.569Z,8.30
2022-11-05T17:09:38.486Z,7.95
2022-11-05T17:12:12.573Z,7.35
2022-11-05T17:14:59.469Z,7.38
2022-11-05T17:17:33.585Z,8.60
2022-11-05T17:20:38.351Z,6.85
2022-11-05T17:23:15.212Z,8.68
2022-11-05T17:26:13.486Z,7.82
2022-11-05T17:28:47.534Z,10.02
2022-11-05T17:31:34.496Z,17.67
2022-11-05T17:34:08.541Z,15.55
2022-11-05T17:36:55.483Z,14.82
2022-11-05T17:39:31.819Z,16.45
2022-11-05T17:42:18.494Z,16.52
2022-11-05T17:45:06.478Z,19.02
2022-11-05T17:47:42.130Z,19.23
2022-11-05T17:50:29.492Z,18.48
2022-11-05T17:53:09.639Z,10.80
2022-11-05T17:55:58.477Z,7.50
2022-11-05T17:58:33.802Z,6.72
2022-11-05T18:01:21.528Z,6.05
2022-11-05T18:04:08.213Z,6.57
2022-11-05T18:06:49.556Z,6.68
2022-11-05T18:09:30.490Z,7.32
2022-11-05T18:12:11.548Z,7.35
2022-11-05T18:14:58.465Z,8.63
2022-11-05T18:17:32.608Z,10.70
2022-11-05T18:20:21.475Z,11.02
2022-11-05T18:23:03.505Z,14.60
2022-11-05T18:25:50.487Z,12.68
2022-11-05T18:28:31.492Z,12.63
2022-11-05T18:31:27.509Z,13.88
2022-11-05T18:34:16.453Z,7.30
2022-11-05T18:36:56.052Z,5.43
2022-11-05T18:39:43.501Z,5.60
2022-11-05T18:42:17.594Z,4.65
2022-11-05T18:45:11.510Z,3.83
2022-11-05T18:48:05.477Z,6.03
2022-11-05T18:50:54.530Z,5.47
2022-11-05T18:53:31.556Z,5.22
2022-11-05T18:56:21.500Z,7.80
2022-11-05T19:02:03.721Z,6.32
2022-11-05T19:05:00.688Z,7.10
2022-11-05T19:07:52.515Z,13.50
2022-11-05T19:10:26.577Z,10.82
2022-11-05T19:13:13.486Z,9.63
2022-11-05T19:15:56.498Z,6.50
2022-11-05T19:18:51.531Z,4.97
2022-11-05T19:21:46.502Z,7.55
2022-11-05T19:24:34.502Z,6.63
2022-11-05T19:27:15.484Z,5.43
2022-11-05T19:30:03.501Z,6.40
2022-11-05T19:32:37.574Z,6.13
2022-11-05T19:35:24.511Z,6.00
2022-11-05T19:37:58.570Z,5.95
2022-11-05T19:40:45.516Z,6.55
2022-11-05T19:43:26.642Z,5.35
2022-11-05T19:46:06.484Z,5.22
2022-11-05T19:48:54.492Z,5.57
2022-11-05T19:51:36.485Z,8.55
2022-11-05T19:54:17.636Z,12.35
2022-11-05T19:57:00.549Z,12.25
2022-11-05T19:59:48.489Z,6.28
2022-11-05T20:02:22.575Z,6.32
2022-11-05T20:05:10.512Z,6.72
2022-11-05T20:07:48.267Z,5.13
2022-11-05T20:10:33.506Z,4.72
2022-11-05T20:13:07.624Z,7.15
2022-11-05T20:15:49.482Z,5.55
2022-11-05T20:18:38.497Z,6.10
2022-11-05T20:21:19.525Z,4.88
2022-11-05T20:24:02.598Z,5.28
2022-11-05T20:26:43.512Z,5.53
2022-11-05T20:29:26.025Z,5.13
2022-11-05T20:32:09.520Z,4.97
2022-11-05T20:34:57.496Z,5.75
2022-11-05T20:37:37.513Z,4.10
2022-11-05T20:40:18.606Z,5.80
2022-11-05T20:42:58.515Z,6.72
2022-11-05T20:45:46.520Z,5.05
2022-11-05T20:48:27.508Z,4.90
2022-11-05T20:51:12.567Z,3.88
2022-11-05T20:53:54.506Z,3.53
2022-11-05T20:56:37.683Z,4.63
2022-11-05T20:59:18.511Z,4.13
2022-11-05T21:01:59.703Z,3.50
2022-11-05T21:04:41.513Z,3.58
2022-11-05T21:07:29.532Z,2.58
2022-11-05T21:10:03.454Z,3.65
2022-11-05T21:12:51.530Z,3.13
2022-11-05T21:15:25.466Z,3.83
2022-11-05T21:18:13.832Z,2.78
2022-11-05T21:20:48.789Z,3.63
2022-11-05T21:23:29.511Z,3.10
2022-11-05T21:26:03.646Z,3.00
2022-11-05T21:28:46.555Z,3.95
2022-11-05T21:31:34.545Z,3.53
2022-11-05T21:34:08.822Z,1.65
2022-11-05T21:36:56.500Z,4.60
2022-11-05T21:39:50.494Z,3.80
2022-11-05T21:42:37.505Z,3.28
2022-11-05T21:45:11.804Z,4.43
2022-11-05T21:47:58.495Z,4.25
2022-11-05T21:50:51.465Z,2.70
2022-11-05T21:53:57.523Z,2.80
2022-11-05T21:56:51.144Z,4.18
2022-11-05T21:59:58.538Z,4.68
2022-11-05T22:02:39.689Z,2.25
2022-11-05T22:05:33.519Z,3.67
2022-11-05T22:08:21.502Z,1.70
2022-11-05T22:10:55.610Z,2.78
2022-11-05T22:13:42.537Z,2.13
2022-11-05T22:16:30.505Z,4.20
2022-11-05T22:19:04.493Z,3.45
2022-11-05T22:21:52.739Z,3.67
2022-11-05T22:24:28.164Z,5.68
2022-11-05T22:27:27.530Z,3.67
2022-11-05T22:30:08.547Z,1.48
2022-11-05T22:32:49.699Z,3.35
2022-11-05T22:35:29.516Z,1.92
2022-11-05T22:38:19.554Z,1.70
2022-11-05T22:41:19.500Z,2.28
2022-11-05T22:44:07.543Z,3.20
2022-11-05T22:46:48.510Z,3.30
2022-11-05T22:49:36.526Z,3.05
2022-11-05T22:52:10.687Z,3.55
2022-11-05T22:54:57.518Z,2.90
2022-11-05T22:57:31.598Z,1.95
2022-11-05T23:00:23.517Z,1.70
2022-11-05T23:03:04.708Z,2.65
2022-11-05T23:05:52.515Z,2.83
2022-11-05T23:08:51.557Z,2.30
2022-11-05T23:11:41.536Z,3.78
2022-11-05T23:14:17.621Z,2.88
2022-11-05T23:17:23.545Z,1.48
2022-11-05T23:20:22.515Z,3.92
2022-11-05T23:23:35.529Z,3.08
2022-11-05T23:26:41.517Z,2.55
2022-11-05T23:29:15.604Z,2.67
2022-11-05T23:32:21.606Z,2.53
2022-11-05T23:35:02.522Z,1.77
2022-11-05T23:38:08.529Z,3.05
2022-11-05T23:41:14.544Z,3.50
2022-11-05T23:44:13.525Z,3.20
2022-11-05T23:47:19.540Z,2.53
2022-11-05T23:50:00.548Z,2.45
2022-11-05T23:52:41.636Z,3.58
2022-11-05T23:55:22.542Z,3.45
2022-11-05T23:58:03.598Z,3.50
